KEAU/EAU METAR and TAF weather

Enter ICAO airport designator
Station Type Date Time Source
KEAU METAR 2021/05/13 05:56 UTC NOAA

KEAU 130556Z AUTO 22003KT 10SM CLR 05/00 A3035 RMK AO2 SLP282 T00500000 10189 20050 402061017 55001


Station Type Date Time Source
KEAU Decoded METAR 2021/05/13 05:56 UTC NOAA

EAU CLAIRE CHIPPEWA VALLEY, WI, United States (KEAU) 44-52N 091-29W
May 13, 2021 - 01:56 AM EDT / 2021.05.13 0556 UTC
Wind: from the SW (220 degrees) at 3 MPH (3 KT):0
Visibility: 10 mile(s):0
Sky conditions: clear
Temperature: 41.0 F (5.0 C)
Dew Point: 32.0 F (0.0 C)
Relative Humidity: 70%
Pressure (altimeter): 30.35 in. Hg (1027 hPa)
Pressure tendency: 0.00 inches (0.1 hPa) lower than three hours ago
ob: KEAU 130556Z AUTO 22003KT 10SM CLR 05/00 A3035 RMK AO2 SLP282 T00500000 10189 20050 402061017 55001
cycle: 6

Station Type Date Time Source
KEAU TAF 2021/05/13 06:21 UTC NOAA

TAF KEAU 130520Z 1306/1406 VRB03KT P6SM SKC
FM131600 22008KT P6SM FEW100
FM140100 17004KT P6SM SKC

Example: see airport list